Airfield :
LOGIN :

Register | Disclaimer

   EN    FR    IT 

 










Legend :    VFR   Marginal VFR   IFR   Intensive IFR   Very Intensive IFR
Visi :
Ceiling :
>= 8 km
>= 3000ft
5 to 8 km
1000 to 3000 ft
1500m to 5 km
500 to 1000 ft
800 to 1500m
200 to 500 ft
< 800m
< 200 ft
Symbols :   Thunderstorms  Fog  Heavy snow  Heavy precipitations  Wind > 20 kt
SIGMETs :     Misc.  Thunderstorms  Icing  Turbulence  Mountain Waves  Volcanic Ashes







- Airport Elevation : 1197 ft
- IATA code : SPM


ETAD - Spangdahlem Ab

CURRENT METAR :
  • 250756Z AUTO 26010KT 9999 FEW049 04/02 A3017 RMK AO2 RAB07E17DZB18E20RAB20E33 SLP219 P0000 T00410016 $

EXPIRED METARs :
  • 250733Z AUTO 27009KT 9999 FEW023 SCT034 BKN044 OVC070 03/01 A3017 RMK AO2 RAB07E17DZB18E20RAB20E33 SLP219 $
  • 250721Z AUTO 25008KT 9999 -RA FEW010 SCT024 BKN029 BKN035 BKN042 OVC070 03/00 A3016 RMK AO2 RAB07E17DZB18E20RAB20 CIG 029V036 BKN029 V SCT SLP216 $
  • 250656Z AUTO 25006KT 9999 FEW024 OVC036 02/M01 A3016 RMK AO2 SLP217 T00161010 $
  • 250556Z AUTO 24007KT 9999 FEW023 SCT029 OVC055 01/M02 A3015 RMK AO2 SLP212 T00051016 10021 21017 56009 $
  • 250456Z AUTO 25005KT 9999 BKN049 M01/M03 A3016 RMK AO2 SLP216 T10071026 $

TAF AMD TAF ETAD
Valid from the 25 at 08:00 until the 26 at 11:00 UTC


250837Z 2508/2611 26009KT 9000 -SHRA SCT025 BKN030 BKN045 620305 QNH3016INS
BECMG 2510/2511 33012G22KT 9999 NSW SCT020 QNH3020INS
BECMG 2515/2516 33012G22KT 9999 BKN020 620202 QNH3024INS
BECMG 2602/2603 34012KT 9999 OVC025 620252 QNH3035INS TX08/2514Z TN00/2605Z
No reported NOTAMs for that airfield.



MET'MAP, your aeronautical weather chart ! - Copyright ORBIFLY December 2007 - Disclaimer

ORBIFLY MET'MAP TEAM :

Programming & Development : Alexandra Zaïnal
Concept & Development : Baudouin d'Aumeries
Co-Development & Prog : Marc-Olivier Méhu
Technical & hardware support : Manuel Goepfert

Contact : metmap@orbifly.com




SOURCES & CREDITS :

   NOAA